Terminal Aerodrome Forecast
Issued by NWS

Home | Current Version | Previous Version | Text Only | Print | Product List | Glossary On
Versions: 1 2 3 4 5 6 7 8 9 10 11 12 13 14 15 16 17 18 19 20 21 22 23
000
FTUS41 KBTV 251946 AAA
TAFSLK
TAF AMD
KSLK 251946Z 2520/2618 22009KT P6SM -SHRA SCT025 BKN035
      TEMPO 2521/2523 3SM -SHRA BR BKN012 OVC025
     FM252300 23008KT P6SM OVC020
     FM260600 25008KT P6SM OVC015
     FM261500 27010KT P6SM OVC025=

USA.gov is the U.S. government's official web portal to all federal, state and local government web resources and services.